• Join FlightAware (Why Join?)
  • Login
  • US Flag 
08:44PM EDT


 

Airport Tracker/Info


-or-


 

Live Flight TrackerFlight Track Log ✈ EGF3994 ✈ 19-Apr-2013 ✈ KORD - KDAY

Flight Track Log - Related Links

Times and Time Zones

All times are in EDT time to prevent confusion due to time zone crossing. See the EGF3994 flight status page for this flight to view local times or setup timezone preferences in your user account.

Time Position Orientation Groundspeed Altitude Reporting Facility
EDT Latitude Longitude Course Direction KTS MPH feet Rate Location/Type
09:39PM 42.0167 -87.9167 90° East 209 241 3,100  Level Chicago TRACON
09:40PM 42.0667 -87.8667 37° Northeast 235 270 5,200 2,220 Climbing Chicago TRACON
09:41PM 41.9624 -87.4906 98° East  Level FlightAware Approximate
09:41PM 42.1000 -87.7667 66° East 285 328 7,600  Level Chicago TRACON
09:42PM 41.9492 -87.3552 95° East  Level FlightAware Approximate
09:42PM 42.0833 -87.6667 103° East 304 350 9,700  Level Chicago TRACON
09:43PM 41.9395 -87.2193 95° East  Level FlightAware Approximate
09:44PM 41.9333 -87.0832 90° East  Level FlightAware Approximate
09:44PM 42.0272 -87.4303 108° East 326 375 13,800  Level Chicago Center
09:45PM 41.9922 -87.2753 107° East 360 414 15,100 1,140 Climbing Chicago Center
09:46PM 41.9619 -87.1400 107° East 375 432 16,200 1,260 Climbing Chicago Center
09:47PM 41.9419 -86.9975 101° East 393 452 17,700 1,500 Climbing Chicago Center
09:48PM 41.9461 -86.8511 88° East 393 452 19,300 1,440 Climbing Chicago Center
09:49PM 41.9483 -86.7044 89° East 394 453 20,700 1,260 Climbing Chicago Center
09:50PM 41.9511 -86.5636 88° East 400 460 22,000 1,080 Climbing Chicago Center
09:51PM 41.9528 -86.3822 89° East 406 467 23,000 480 Climbing Chicago Center
09:52PM 41.9525 -86.2186 90° East 434 499 23,000  Level Chicago Center
09:53PM 41.9108 -86.0653 110° East 438 504 23,000  Level Chicago Center
09:54PM 41.8506 -85.9269 120° Southeast 435 501 23,000  Level Chicago Center
09:55PM 41.7661 -85.8214 137° Southeast 419 482 23,000  Level Chicago Center
09:57PM 41.6808 -85.7175 138° Southeast 419 482 23,000  Level Chicago Center
09:58PM 41.5969 -85.6117 137° Southeast 420 483 23,000  Level Chicago Center
09:59PM 41.4978 -85.4906 138° Southeast 416 479 23,000  Level Chicago Center
10:00PM 41.4156 -85.3897 137° Southeast 409 471 23,000  Level Chicago Center
10:01PM 41.3331 -85.2886 137° Southeast 408 470 23,000  Level Chicago Center
10:02PM 41.2486 -85.1892 138° Southeast 408 470 23,000  Level Chicago Center
10:03PM 41.1656 -85.0872 137° Southeast 408 470 23,000 -840 Level Chicago Center
10:04PM 41.0661 -84.9683 138° Southeast 405 466 21,400 -2,400 Descending Chicago Center
10:05PM 40.9847 -84.8717 138° Southeast 398 458 18,200 -2,880 Descending Chicago Center
10:06PM 40.9067 -84.7753 137° Southeast 390 449 15,600 -1,620 Descending Chicago Center
10:07PM 40.8297 -84.6800 137° Southeast 384 442 14,900 -600 Descending Chicago Center
10:08PM 40.7503 -84.5850 138° Southeast 384 442 14,400 -960 Descending Chicago Center
10:09PM 40.6722 -84.4928 138° Southeast 382 440 13,000 -1,200 Descending Chicago Center
10:10PM 40.5694 -84.4253 153° Southeast 360 414 11,900 -1,080 Descending Indianapolis Center
10:10PM 40.5336 -84.4081 160° South 361 415 11,400 -1,020 Descending Indianapolis Center
10:11PM 40.4806 -84.3831 160° South 340 391 10,900 -1,020 Descending Indianapolis Center
10:11PM 40.4464 -84.3672 161° South 339 390 10,400 -1,320 Descending Indianapolis Center
10:12PM 40.3917 -84.3408 160° South 276 318 9,500 -1,380 Descending Indianapolis Center
10:12PM 40.3747 -84.3303 155° Southeast 292 336 9,000 -1,200 Descending Indianapolis Center
10:13PM 40.3192 -84.3061 162° South 278 320 8,300 -1,020 Descending Indianapolis Center
10:13PM 40.3000 -84.2947 156° South 285 328 8,000 -1,500 Descending Indianapolis Center
10:14PM 40.2467 -84.2692 160° South 274 315 6,800 -1,800 Descending Indianapolis Center
10:14PM 40.2283 -84.2600 159° South 278 320 6,200 -1,920 Descending Indianapolis Center
10:15PM 40.1781 -84.2353 159° South 264 304 4,900 -1,800 Descending Indianapolis Center
10:15PM 40.1592 -84.2272 162° South 270 311 4,400 -1,500 Descending Indianapolis Center
10:16PM 40.1111 -84.2044 160° South 259 298 3,400 -1,320 Descending Indianapolis Center
10:16PM 40.0928 -84.1944 157° South 262 302 3,100 -840 Descending Indianapolis Center